createdAt,value
2018-07-28T00:01:12.768Z,22.70
2018-07-28T00:03:40.898Z,22.60
2018-07-28T00:06:09.049Z,22.50
2018-07-28T00:08:37.161Z,22.40
2018-07-28T00:11:05.296Z,22.30
2018-07-28T00:13:33.421Z,22.20
2018-07-28T00:16:01.553Z,22.20
2018-07-28T00:18:29.689Z,22.10
2018-07-28T00:20:57.831Z,22.10
2018-07-28T00:23:25.952Z,22.10
2018-07-28T00:25:59.704Z,22.10
2018-07-28T00:28:27.800Z,22.10
2018-07-28T00:30:55.958Z,22.10
2018-07-28T00:33:24.121Z,22.10
2018-07-28T00:35:52.416Z,22.10
2018-07-28T00:38:20.548Z,22.10
2018-07-28T00:40:48.669Z,22.10
2018-07-28T00:43:16.789Z,22.10
2018-07-28T00:45:44.936Z,22.10
2018-07-28T00:48:13.053Z,22.00
2018-07-28T00:50:41.158Z,22.10
2018-07-28T00:53:09.487Z,22.10
2018-07-28T00:55:37.705Z,22.10
2018-07-28T00:58:06.054Z,22.00
2018-07-28T01:00:34.188Z,22.00
2018-07-28T01:03:02.585Z,22.00
2018-07-28T01:05:30.713Z,22.00
2018-07-28T01:07:58.856Z,22.00
2018-07-28T01:10:26.989Z,22.20
2018-07-28T01:12:55.093Z,22.20
2018-07-28T01:15:23.201Z,22.10
2018-07-28T01:17:51.306Z,22.00
2018-07-28T01:20:19.472Z,21.90
2018-07-28T01:22:47.575Z,21.90
2018-07-28T01:25:15.672Z,21.80
2018-07-28T01:27:43.785Z,21.80
2018-07-28T01:30:19.036Z,21.80
2018-07-28T01:32:48.155Z,21.80
2018-07-28T01:35:16.296Z,21.70
2018-07-28T01:37:44.429Z,21.70
2018-07-28T01:40:12.532Z,21.70
2018-07-28T01:42:40.660Z,21.60
2018-07-28T01:45:09.280Z,21.40
2018-07-28T01:47:37.433Z,21.40
2018-07-28T01:50:06.349Z,21.40
2018-07-28T01:52:34.510Z,21.30
2018-07-28T01:55:02.686Z,21.30
2018-07-28T01:57:30.942Z,21.30
2018-07-28T01:59:59.098Z,21.30
2018-07-28T02:02:27.225Z,21.20
2018-07-28T02:04:55.343Z,21.20
2018-07-28T02:07:23.482Z,21.30
2018-07-28T02:09:51.569Z,21.10
2018-07-28T02:12:19.745Z,21.00
2018-07-28T02:14:47.837Z,21.00
2018-07-28T02:17:15.981Z,20.90
2018-07-28T02:19:45.030Z,20.90
2018-07-28T02:22:13.134Z,20.90
2018-07-28T02:24:41.269Z,20.90
2018-07-28T02:27:09.376Z,20.80
2018-07-28T02:29:37.480Z,20.80
2018-07-28T02:32:05.608Z,20.60
2018-07-28T02:34:33.746Z,20.60
2018-07-28T02:37:01.902Z,20.50
2018-07-28T02:39:30.029Z,20.50
2018-07-28T02:41:58.141Z,20.40
2018-07-28T02:44:26.262Z,20.40
2018-07-28T02:46:54.369Z,20.40
2018-07-28T02:49:22.489Z,20.30
2018-07-28T02:51:50.593Z,20.30
2018-07-28T02:54:18.712Z,20.20
2018-07-28T02:56:46.821Z,20.10
2018-07-28T02:59:14.928Z,20.00
2018-07-28T03:01:43.055Z,19.90
2018-07-28T03:04:11.169Z,19.90
2018-07-28T03:06:39.279Z,19.90
2018-07-28T03:09:09.885Z,19.90
2018-07-28T03:11:38.505Z,19.90
2018-07-28T03:14:06.633Z,19.90
2018-07-28T03:16:34.745Z,19.90
2018-07-28T03:19:02.882Z,19.90
2018-07-28T03:21:31.011Z,19.80
2018-07-28T03:23:59.151Z,19.70
2018-07-28T03:26:27.264Z,19.60
2018-07-28T03:28:55.363Z,19.60
2018-07-28T03:31:23.479Z,19.60
2018-07-28T03:33:51.621Z,19.50
2018-07-28T03:36:19.728Z,19.40
2018-07-28T03:38:48.017Z,19.40
2018-07-28T03:41:16.256Z,19.30
2018-07-28T03:43:44.399Z,19.20
2018-07-28T03:46:12.509Z,19.20
2018-07-28T03:48:40.608Z,19.20
2018-07-28T03:51:08.722Z,19.20
2018-07-28T03:53:36.829Z,19.30
2018-07-28T03:56:04.964Z,19.20
2018-07-28T03:58:33.097Z,19.20
2018-07-28T04:01:01.284Z,19.30
2018-07-28T04:03:29.417Z,19.20
2018-07-28T04:05:57.596Z,19.20
2018-07-28T04:08:25.685Z,19.10
2018-07-28T04:10:53.803Z,19.10
2018-07-28T04:13:21.913Z,19.10
2018-07-28T04:15:50.025Z,19.20
2018-07-28T04:18:18.113Z,19.20
2018-07-28T04:20:46.247Z,19.20
2018-07-28T04:23:14.360Z,19.20
2018-07-28T04:25:42.467Z,19.20
2018-07-28T04:28:10.973Z,19.10
2018-07-28T04:30:39.112Z,19.10
2018-07-28T04:33:07.215Z,19.20
2018-07-28T04:35:35.353Z,19.10
2018-07-28T04:38:03.481Z,19.10
2018-07-28T04:40:31.617Z,19.10
2018-07-28T04:42:59.757Z,19.10
2018-07-28T04:45:27.872Z,19.20
2018-07-28T04:47:55.965Z,19.20
2018-07-28T04:50:24.091Z,19.40
2018-07-28T04:52:52.438Z,19.50
2018-07-28T04:55:20.565Z,19.60
2018-07-28T04:57:48.661Z,19.80
2018-07-28T05:00:16.780Z,19.80
2018-07-28T05:02:44.889Z,19.90
2018-07-28T05:05:12.993Z,20.00
2018-07-28T05:07:41.178Z,20.10
2018-07-28T05:10:09.211Z,20.20
2018-07-28T05:12:37.322Z,20.20
2018-07-28T05:15:06.124Z,20.30
2018-07-28T05:17:34.304Z,20.40
2018-07-28T05:20:02.422Z,20.30
2018-07-28T05:22:30.538Z,20.30
2018-07-28T05:24:58.680Z,20.30
2018-07-28T05:27:32.674Z,20.40
2018-07-28T05:30:00.781Z,20.40
2018-07-28T05:32:28.904Z,20.50
2018-07-28T05:34:57.028Z,20.60
2018-07-28T05:37:25.153Z,20.80
2018-07-28T05:39:53.509Z,21.10
2018-07-28T05:42:21.657Z,21.40
2018-07-28T05:44:49.756Z,21.70
2018-07-28T05:47:17.901Z,22.00
2018-07-28T05:49:46.024Z,22.00
2018-07-28T05:52:14.159Z,21.90
2018-07-28T05:54:42.294Z,22.20
2018-07-28T05:57:10.829Z,22.60
2018-07-28T05:59:39.037Z,23.20
2018-07-28T06:02:07.394Z,23.80
2018-07-28T06:04:35.479Z,24.10
2018-07-28T06:07:03.606Z,24.30
2018-07-28T06:09:31.714Z,24.40
2018-07-28T06:11:59.870Z,24.60
2018-07-28T06:14:27.957Z,24.70
2018-07-28T06:16:56.073Z,24.60
2018-07-28T06:19:24.183Z,24.50
2018-07-28T06:21:52.340Z,24.30
2018-07-28T06:24:20.458Z,24.30
2018-07-28T06:26:48.591Z,24.20
2018-07-28T06:29:16.705Z,24.30
2018-07-28T06:31:44.932Z,24.40
2018-07-28T06:34:12.945Z,24.50
2018-07-28T06:36:41.071Z,24.50
2018-07-28T06:39:11.261Z,24.40
2018-07-28T06:41:39.582Z,24.40
2018-07-28T06:44:07.780Z,24.30
2018-07-28T06:46:35.917Z,24.20
2018-07-28T06:49:04.049Z,24.10
2018-07-28T06:51:32.168Z,23.90
2018-07-28T06:54:00.286Z,23.80
2018-07-28T06:56:28.411Z,23.60
2018-07-28T06:58:56.550Z,23.50
2018-07-28T07:01:24.737Z,23.40
2018-07-28T07:03:52.883Z,23.20
2018-07-28T07:06:27.691Z,23.00
2018-07-28T07:08:55.806Z,22.80
2018-07-28T07:11:23.965Z,22.60
2018-07-28T07:13:52.486Z,22.60
2018-07-28T07:16:20.742Z,22.60
2018-07-28T07:18:49.866Z,22.70
2018-07-28T07:21:17.994Z,22.60
2018-07-28T07:23:46.117Z,22.60
2018-07-28T07:26:14.243Z,22.60
2018-07-28T07:28:42.381Z,22.70
2018-07-28T07:31:10.514Z,22.80
2018-07-28T07:33:38.677Z,22.80
2018-07-28T07:36:06.859Z,22.90
2018-07-28T07:38:34.957Z,23.00
2018-07-28T07:41:03.065Z,23.20
2018-07-28T07:43:31.206Z,23.30
2018-07-28T07:45:59.327Z,23.30
2018-07-28T07:48:27.481Z,23.50
2018-07-28T07:50:55.596Z,23.60
2018-07-28T07:53:23.732Z,23.60
2018-07-28T07:55:51.853Z,23.70
2018-07-28T07:58:19.964Z,23.80
2018-07-28T08:00:48.175Z,23.80
2018-07-28T08:03:16.381Z,23.90
2018-07-28T08:05:44.519Z,23.90
2018-07-28T08:08:12.671Z,23.90
2018-07-28T08:10:41.777Z,24.00
2018-07-28T08:13:09.936Z,24.10
2018-07-28T08:15:38.089Z,24.10
2018-07-28T08:18:06.293Z,24.00
2018-07-28T08:20:34.401Z,24.00
2018-07-28T08:23:02.511Z,24.30
2018-07-28T08:25:30.629Z,24.30
2018-07-28T08:27:58.749Z,24.40
2018-07-28T08:30:26.853Z,24.40
2018-07-28T08:32:54.973Z,24.40
2018-07-28T08:35:23.085Z,24.40
2018-07-28T08:37:51.240Z,24.30
2018-07-28T08:40:19.314Z,24.30
2018-07-28T08:42:47.432Z,24.30
2018-07-28T08:45:15.801Z,24.40
2018-07-28T08:47:43.927Z,24.40
2018-07-28T08:50:12.073Z,24.50
2018-07-28T08:52:40.205Z,24.60
2018-07-28T08:55:08.337Z,24.70
2018-07-28T08:57:36.452Z,24.80
2018-07-28T09:00:05.425Z,25.00
2018-07-28T09:02:33.550Z,25.30
2018-07-28T09:05:01.674Z,25.50
2018-07-28T09:07:29.781Z,25.80
2018-07-28T09:09:58.096Z,25.90
2018-07-28T09:12:26.248Z,26.00
2018-07-28T09:14:54.346Z,26.10
2018-07-28T09:17:22.465Z,26.30
2018-07-28T09:19:50.628Z,26.60
2018-07-28T09:22:18.799Z,27.00
2018-07-28T09:24:46.997Z,27.40
2018-07-28T09:27:15.545Z,27.70
2018-07-28T09:29:43.752Z,27.50
2018-07-28T09:32:11.929Z,27.50
2018-07-28T09:34:40.084Z,27.60
2018-07-28T09:37:08.265Z,27.70
2018-07-28T09:39:36.428Z,27.70
2018-07-28T09:42:04.574Z,27.70
2018-07-28T09:44:32.745Z,27.40
2018-07-28T09:47:00.866Z,27.20
2018-07-28T09:49:29.006Z,27.20
2018-07-28T09:51:57.132Z,27.10
2018-07-28T09:54:25.262Z,27.20
2018-07-28T09:56:53.342Z,27.30
2018-07-28T09:59:21.456Z,27.50
2018-07-28T10:01:49.596Z,27.60
2018-07-28T10:04:17.727Z,27.70
2018-07-28T10:06:45.905Z,27.50
2018-07-28T10:09:14.078Z,27.60
2018-07-28T10:11:42.257Z,27.60
2018-07-28T10:14:10.436Z,27.80
2018-07-28T10:16:38.618Z,27.90
2018-07-28T10:19:06.776Z,27.80
2018-07-28T10:21:34.946Z,27.90
2018-07-28T10:24:03.072Z,28.00
2018-07-28T10:26:31.196Z,27.80
2018-07-28T10:28:59.399Z,27.60
2018-07-28T10:31:27.782Z,27.60
2018-07-28T10:33:55.960Z,27.50
2018-07-28T10:36:24.239Z,27.50
2018-07-28T10:38:52.287Z,27.60
2018-07-28T10:41:20.481Z,27.80
2018-07-28T10:43:48.620Z,27.80
2018-07-28T10:46:19.726Z,27.70
2018-07-28T10:48:48.461Z,27.60
2018-07-28T10:51:16.724Z,27.80
2018-07-28T10:53:45.223Z,28.10
2018-07-28T10:56:13.509Z,28.40
2018-07-28T10:58:42.054Z,28.60
2018-07-28T11:01:10.241Z,28.80
2018-07-28T11:03:38.429Z,28.90
2018-07-28T11:06:06.836Z,29.10
2018-07-28T11:08:34.973Z,29.40
2018-07-28T11:11:03.079Z,29.70
2018-07-28T11:13:31.265Z,29.80
2018-07-28T11:15:59.374Z,29.90
2018-07-28T11:18:27.512Z,29.80
2018-07-28T11:20:55.629Z,29.70
2018-07-28T11:23:34.943Z,29.60
2018-07-28T11:26:03.179Z,29.60
2018-07-28T11:28:31.251Z,29.40
2018-07-28T11:30:59.376Z,29.30
2018-07-28T11:33:38.870Z,29.60
2018-07-28T11:36:18.310Z,29.80
2018-07-28T11:38:57.685Z,29.90
2018-07-28T11:41:37.209Z,30.30
2018-07-28T11:44:16.612Z,30.30
2018-07-28T11:46:44.720Z,30.20
2018-07-28T11:49:12.873Z,30.10
2018-07-28T11:51:41.031Z,29.90
2018-07-28T11:54:09.235Z,29.90
2018-07-28T11:56:37.996Z,29.90
2018-07-28T11:59:06.131Z,29.90
2018-07-28T12:01:34.315Z,29.70
2018-07-28T12:04:02.428Z,29.60
2018-07-28T12:06:30.597Z,29.50
2018-07-28T12:08:58.809Z,29.40
2018-07-28T12:11:27.717Z,29.30
2018-07-28T12:13:55.934Z,29.30
2018-07-28T12:16:24.049Z,29.40
2018-07-28T12:18:52.164Z,29.70
2018-07-28T12:21:20.289Z,29.90
2018-07-28T12:23:48.500Z,29.80
2018-07-28T12:26:16.610Z,29.50
2018-07-28T12:28:45.775Z,29.20
2018-07-28T12:31:14.042Z,29.10
2018-07-28T12:33:42.189Z,28.90
2018-07-28T12:36:10.341Z,28.70
2018-07-28T12:38:38.693Z,28.50
2018-07-28T12:41:07.041Z,28.40
2018-07-28T12:43:35.121Z,28.40
2018-07-28T12:46:03.257Z,28.30
2018-07-28T12:48:31.393Z,28.20
2018-07-28T12:50:59.561Z,28.10
2018-07-28T12:53:27.682Z,28.00
2018-07-28T12:55:55.862Z,28.00
2018-07-28T12:58:24.004Z,27.90
2018-07-28T13:00:52.134Z,27.90
2018-07-28T13:03:20.312Z,28.00
2018-07-28T13:05:48.485Z,28.10
2018-07-28T13:08:16.620Z,28.20
2018-07-28T13:10:44.822Z,28.40
2018-07-28T13:13:13.010Z,28.50
2018-07-28T13:15:41.474Z,28.70
2018-07-28T13:18:09.669Z,28.80
2018-07-28T13:20:37.871Z,28.90
2018-07-28T13:23:06.520Z,28.90
2018-07-28T13:25:34.759Z,28.90
2018-07-28T13:28:02.882Z,29.10
2018-07-28T13:30:31.023Z,29.20
2018-07-28T13:32:59.142Z,29.40
2018-07-28T13:35:27.382Z,29.30
2018-07-28T13:37:55.414Z,29.40
2018-07-28T13:40:23.609Z,29.40
2018-07-28T13:42:51.793Z,29.50
2018-07-28T13:45:19.904Z,29.60
2018-07-28T13:47:48.131Z,29.50
2018-07-28T13:50:16.205Z,29.50
2018-07-28T13:52:44.369Z,29.50
2018-07-28T13:55:12.548Z,29.20
2018-07-28T13:57:40.728Z,29.00
2018-07-28T14:00:09.099Z,28.90
2018-07-28T14:02:37.301Z,28.80
2018-07-28T14:05:05.470Z,28.70
2018-07-28T14:07:33.586Z,28.60
2018-07-28T14:10:01.761Z,28.50
2018-07-28T14:12:29.881Z,28.20
2018-07-28T14:14:58.041Z,28.20
2018-07-28T14:17:26.144Z,28.00
2018-07-28T14:19:54.277Z,27.80
2018-07-28T14:22:22.396Z,27.80
2018-07-28T14:24:50.941Z,27.80
2018-07-28T14:27:19.066Z,27.70
2018-07-28T14:29:47.213Z,27.50
2018-07-28T14:32:15.373Z,27.40
2018-07-28T14:34:43.625Z,27.30
2018-07-28T14:37:11.816Z,27.10
2018-07-28T14:39:40.004Z,27.10
2018-07-28T14:42:08.491Z,27.00
2018-07-28T14:44:36.627Z,26.90
2018-07-28T14:47:05.029Z,26.90
2018-07-28T14:49:33.179Z,26.90
2018-07-28T14:52:01.304Z,26.80
2018-07-28T14:54:29.438Z,26.80
2018-07-28T14:56:57.548Z,26.80
2018-07-28T14:59:25.668Z,26.70
2018-07-28T15:01:53.878Z,26.70
2018-07-28T15:04:22.073Z,26.60
2018-07-28T15:06:50.237Z,26.60
2018-07-28T15:09:19.390Z,26.50
2018-07-28T15:11:48.517Z,26.40
2018-07-28T15:14:16.728Z,26.40
2018-07-28T15:16:44.951Z,26.40
2018-07-28T15:19:13.157Z,26.30
2018-07-28T15:21:41.336Z,26.20
2018-07-28T15:24:09.510Z,26.20
2018-07-28T15:26:37.782Z,26.20
2018-07-28T15:29:06.974Z,26.30
2018-07-28T15:31:35.141Z,26.40
2018-07-28T15:34:03.290Z,26.40
2018-07-28T15:36:31.402Z,26.40
2018-07-28T15:38:59.865Z,26.40
2018-07-28T15:41:28.021Z,26.30
2018-07-28T15:43:56.200Z,26.30
2018-07-28T15:46:24.324Z,26.30
2018-07-28T15:48:53.464Z,26.30
2018-07-28T15:51:21.634Z,26.20
2018-07-28T15:53:49.733Z,26.20
2018-07-28T15:56:17.938Z,26.10
2018-07-28T15:58:45.984Z,26.10
2018-07-28T16:01:14.239Z,26.10
2018-07-28T16:03:42.412Z,26.00
2018-07-28T16:06:10.605Z,26.00
2018-07-28T16:08:38.792Z,26.00
2018-07-28T16:11:06.968Z,25.90
2018-07-28T16:13:35.120Z,25.90
2018-07-28T16:16:03.260Z,25.90
2018-07-28T16:18:31.458Z,25.80
2018-07-28T16:20:59.610Z,25.70
2018-07-28T16:23:27.754Z,25.70
2018-07-28T16:25:55.885Z,25.70
2018-07-28T16:28:24.057Z,25.60
2018-07-28T16:30:52.346Z,25.60
2018-07-28T16:33:20.573Z,25.50
2018-07-28T16:35:48.778Z,25.20
2018-07-28T16:38:17.013Z,25.10
2018-07-28T16:40:45.107Z,25.00
2018-07-28T16:43:13.304Z,24.80
2018-07-28T16:45:41.477Z,24.70
2018-07-28T16:48:09.671Z,24.70
2018-07-28T16:50:37.827Z,24.70
2018-07-28T16:53:05.965Z,24.70
2018-07-28T16:55:36.955Z,24.60
2018-07-28T16:58:05.221Z,24.60
2018-07-28T17:00:33.372Z,24.50
2018-07-28T17:03:01.524Z,24.50
2018-07-28T17:05:29.669Z,24.50
2018-07-28T17:07:57.816Z,24.40
2018-07-28T17:10:25.938Z,24.40
2018-07-28T17:12:54.297Z,24.40
2018-07-28T17:15:22.433Z,24.30
2018-07-28T17:17:50.900Z,24.30
2018-07-28T17:20:19.047Z,24.20
2018-07-28T17:22:47.296Z,24.20
2018-07-28T17:25:15.349Z,24.20
2018-07-28T17:27:43.481Z,24.20
2018-07-28T17:30:11.664Z,24.20
2018-07-28T17:32:39.834Z,24.30
2018-07-28T17:35:07.998Z,24.20
2018-07-28T17:37:36.143Z,24.10
2018-07-28T17:40:04.317Z,24.20
2018-07-28T17:42:32.481Z,24.20
2018-07-28T17:45:00.617Z,24.10
2018-07-28T17:47:28.735Z,24.10
2018-07-28T17:49:57.849Z,24.10
2018-07-28T17:52:25.973Z,24.10
2018-07-28T17:54:54.099Z,24.10
2018-07-28T17:57:22.224Z,24.10
2018-07-28T17:59:50.391Z,24.10
2018-07-28T18:02:18.509Z,24.10
2018-07-28T18:04:46.669Z,24.00
2018-07-28T18:07:14.861Z,24.10
2018-07-28T18:09:43.005Z,24.10
2018-07-28T18:12:12.058Z,24.10
2018-07-28T18:14:40.198Z,24.10
2018-07-28T18:17:08.448Z,24.10
2018-07-28T18:19:36.646Z,24.10
2018-07-28T18:22:04.705Z,24.00
2018-07-28T18:24:32.840Z,24.10
2018-07-28T18:27:00.964Z,24.10
2018-07-28T18:29:29.073Z,24.10
2018-07-28T18:31:57.192Z,24.10
2018-07-28T18:34:25.306Z,24.10
2018-07-28T18:36:53.397Z,24.10
2018-07-28T18:39:21.511Z,24.10
2018-07-28T18:41:50.689Z,24.10
2018-07-28T18:44:18.776Z,24.10
2018-07-28T18:46:46.969Z,24.10
2018-07-28T18:49:15.154Z,24.00
2018-07-28T18:51:43.334Z,24.00
2018-07-28T18:54:11.498Z,24.00
2018-07-28T18:56:39.891Z,24.00
2018-07-28T18:59:08.294Z,24.00
2018-07-28T19:01:37.454Z,24.00
2018-07-28T19:04:05.849Z,24.00
2018-07-28T19:06:34.047Z,24.00
2018-07-28T19:09:07.663Z,24.00
2018-07-28T19:11:35.772Z,24.00
2018-07-28T19:14:09.261Z,23.90
2018-07-28T19:16:37.475Z,23.90
2018-07-28T19:19:11.034Z,23.90
2018-07-28T19:21:39.382Z,23.90
2018-07-28T19:24:07.593Z,23.90
2018-07-28T19:26:35.793Z,23.90
2018-07-28T19:29:09.318Z,23.90
2018-07-28T19:31:37.495Z,23.90
2018-07-28T19:34:05.792Z,23.80
2018-07-28T19:36:40.982Z,23.80
2018-07-28T19:39:10.812Z,23.60
2018-07-28T19:41:44.518Z,23.70
2018-07-28T19:44:13.185Z,23.70
2018-07-28T19:46:41.487Z,23.60
2018-07-28T19:49:09.761Z,23.60
2018-07-28T19:51:38.389Z,23.50
2018-07-28T19:54:06.520Z,23.50
2018-07-28T19:56:34.901Z,23.40
2018-07-28T19:59:03.230Z,23.60
2018-07-28T20:01:31.391Z,23.50
2018-07-28T20:03:59.590Z,23.40
2018-07-28T20:06:27.736Z,23.40
2018-07-28T20:08:55.898Z,23.30
2018-07-28T20:11:24.914Z,23.30
2018-07-28T20:13:53.072Z,23.30
2018-07-28T20:16:21.197Z,23.20
2018-07-28T20:18:49.422Z,23.20
2018-07-28T20:21:17.598Z,23.20
2018-07-28T20:23:45.733Z,23.10
2018-07-28T20:26:15.963Z,23.00
2018-07-28T20:28:44.113Z,23.00
2018-07-28T20:31:12.293Z,22.90
2018-07-28T20:33:40.509Z,22.80
2018-07-28T20:36:08.647Z,22.80
2018-07-28T20:38:36.793Z,22.80
2018-07-28T20:41:04.983Z,22.80
2018-07-28T20:43:33.152Z,22.80
2018-07-28T20:46:01.423Z,22.70
2018-07-28T20:48:29.594Z,22.90
2018-07-28T20:50:58.751Z,22.80
2018-07-28T20:53:26.889Z,22.70
2018-07-28T20:55:55.055Z,22.60
2018-07-28T20:58:23.222Z,22.50
2018-07-28T21:00:51.395Z,22.50
2018-07-28T21:03:19.530Z,22.20
2018-07-28T21:05:47.673Z,22.10
2018-07-28T21:08:15.901Z,22.00
2018-07-28T21:10:44.308Z,21.90
2018-07-28T21:13:12.637Z,21.70
2018-07-28T21:15:40.858Z,21.70
2018-07-28T21:18:09.052Z,21.70
2018-07-28T21:20:37.251Z,21.70
2018-07-28T21:23:05.430Z,21.60
2018-07-28T21:25:33.632Z,21.60
2018-07-28T21:28:01.801Z,21.60
2018-07-28T21:30:29.883Z,21.50
2018-07-28T21:32:58.009Z,21.50
2018-07-28T21:35:26.152Z,21.40
2018-07-28T21:37:54.364Z,21.30
2018-07-28T21:40:22.512Z,21.40
2018-07-28T21:42:50.662Z,21.30
2018-07-28T21:45:19.813Z,21.30
2018-07-28T21:47:47.974Z,21.20
2018-07-28T21:50:16.137Z,21.20
2018-07-28T21:52:44.337Z,21.10
2018-07-28T21:55:12.498Z,21.10
2018-07-28T21:57:40.785Z,21.00
2018-07-28T22:00:09.650Z,21.10
2018-07-28T22:02:37.851Z,21.10
2018-07-28T22:05:06.194Z,21.10
2018-07-28T22:07:34.389Z,21.10
2018-07-28T22:10:02.528Z,21.10
2018-07-28T22:12:30.666Z,21.10
2018-07-28T22:14:58.803Z,21.10
2018-07-28T22:17:26.930Z,21.20
2018-07-28T22:19:55.085Z,21.20
2018-07-28T22:22:23.273Z,21.00
2018-07-28T22:24:51.505Z,21.00
2018-07-28T22:27:19.652Z,20.90
2018-07-28T22:29:47.817Z,20.90
2018-07-28T22:32:15.949Z,20.90
2018-07-28T22:34:44.100Z,20.90
2018-07-28T22:37:12.323Z,21.00
2018-07-28T22:39:40.567Z,21.00
2018-07-28T22:42:08.832Z,21.00
2018-07-28T22:44:37.033Z,20.90
2018-07-28T22:47:05.351Z,20.70
2018-07-28T22:49:33.545Z,20.80
2018-07-28T22:52:01.728Z,20.80
2018-07-28T22:54:29.924Z,20.70
2018-07-28T22:56:58.109Z,20.70
2018-07-28T22:59:26.254Z,20.70
2018-07-28T23:01:54.421Z,20.80
2018-07-28T23:04:22.648Z,20.80
2018-07-28T23:06:50.888Z,20.90
2018-07-28T23:09:19.049Z,20.90
2018-07-28T23:11:47.261Z,20.90
2018-07-28T23:14:15.437Z,20.90
2018-07-28T23:16:43.608Z,20.80
2018-07-28T23:19:14.374Z,20.80
2018-07-28T23:21:44.344Z,20.70
2018-07-28T23:24:12.520Z,20.70
2018-07-28T23:26:40.708Z,20.60
2018-07-28T23:29:08.953Z,20.60
2018-07-28T23:31:37.212Z,20.60
2018-07-28T23:34:05.427Z,20.60
2018-07-28T23:36:33.555Z,20.50
2018-07-28T23:39:01.905Z,20.50
2018-07-28T23:41:30.093Z,20.50
2018-07-28T23:43:58.222Z,20.50
2018-07-28T23:46:26.403Z,20.50
2018-07-28T23:48:54.841Z,20.50
2018-07-28T23:51:22.984Z,20.40
2018-07-28T23:53:51.136Z,20.40
2018-07-28T23:56:19.298Z,20.30
2018-07-28T23:58:47.422Z,20.30
